NCAR-RAP Real-Time Weather Data

Output produced by METARs form (06 May 2021  16:04 UTC)
found at http://weather.rap.ucar.edu/surface/
 
KJAN 061554Z 01009KT 10SM CLR 22/08 A3020 RMK AO2 SLP222 T02170083
KJAN 061454Z 04010KT 10SM CLR 21/08 A3020 RMK AO2 SLP222 T02060083 51008
KJAN 061354Z 04005KT 10SM CLR 18/09 A3019 RMK AO2 SLP221 T01830094
KJAN 061254Z 04005KT 10SM CLR 16/10 A3018 RMK AO2 SLP217 T01610100
KJAN 061154Z 03003KT 10SM CLR 13/09 A3017 RMK AO2 SLP214 T01330094 10156 20122 53008
KJAN 061054Z 05005KT 10SM CLR 13/09 A3016 RMK AO2 SLP209 T01330089
KJAN 060954Z AUTO 03006KT 10SM CLR 14/09 A3015 RMK AO2 SLP208 T01390094
KJAN 060854Z AUTO 01006KT 10SM CLR 13/10 A3015 RMK AO2 SLP205 T01330100 53014
KJAN 060754Z AUTO 00000KT 10SM CLR 13/10 A3012 RMK AO2 SLP196 T01280100
KJAN 060654Z AUTO 35004KT 10SM CLR 14/11 A3011 RMK AO2 SLP193 T01440106
KJAN 060554Z AUTO 35005KT 10SM CLR 15/11 A3010 RMK AO2 SLP191 T01500111 10211 20139 402330139 58002
KJAN 060454Z AUTO 35004KT 10SM CLR 15/12 A3011 RMK AO2 SLP194 T01500117
KJAN 060354Z 00000KT 10SM CLR 14/12 A3012 RMK AO2 SLP197 T01390122
KJAN 060254Z 00000KT 10SM CLR 16/13 A3011 RMK AO2 SLP194 T01560128 53013
KJAN 060154Z 00000KT 10SM CLR 17/13 A3009 RMK AO2 SLP188 T01670133